createdAt,value
2017-12-16T00:00:35.299Z,0.00
2017-12-16T00:01:35.203Z,0.00
2017-12-16T00:02:35.215Z,0.00
2017-12-16T00:03:35.139Z,0.00
2017-12-16T00:04:35.126Z,0.00
2017-12-16T00:05:35.082Z,0.00
2017-12-16T00:06:35.135Z,0.00
2017-12-16T00:07:35.010Z,0.00
2017-12-16T00:08:35.046Z,0.00
2017-12-16T00:09:34.948Z,0.00
2017-12-16T00:10:34.956Z,0.00
2017-12-16T00:11:34.875Z,0.00
2017-12-16T00:12:34.868Z,0.00
2017-12-16T00:13:34.812Z,0.00
2017-12-16T00:14:34.886Z,0.00
2017-12-16T00:15:34.747Z,0.00
2017-12-16T00:16:34.794Z,0.00
2017-12-16T00:17:34.682Z,0.00
2017-12-16T00:18:34.765Z,0.00
2017-12-16T00:19:34.618Z,0.00
2017-12-16T00:20:34.616Z,0.00
2017-12-16T00:21:34.554Z,0.00
2017-12-16T00:22:34.631Z,0.00
2017-12-16T00:23:34.491Z,0.00
2017-12-16T00:24:34.540Z,0.00
2017-12-16T00:25:34.423Z,0.00
2017-12-16T00:26:34.454Z,0.00
2017-12-16T00:27:34.355Z,0.00
2017-12-16T00:28:34.368Z,0.00
2017-12-16T00:29:34.294Z,0.00
2017-12-16T00:30:34.279Z,0.00
2017-12-16T00:31:34.229Z,0.00
2017-12-16T00:32:34.293Z,0.00
2017-12-16T00:33:34.175Z,0.00
2017-12-16T00:34:34.206Z,0.00
2017-12-16T00:35:34.099Z,0.00
2017-12-16T00:36:34.116Z,0.00
2017-12-16T00:37:34.035Z,0.00
2017-12-16T00:38:34.051Z,0.00
2017-12-16T00:39:33.966Z,0.00
2017-12-16T00:40:34.054Z,0.00
2017-12-16T00:41:33.903Z,0.00
2017-12-16T00:42:33.953Z,0.00
2017-12-16T00:43:33.841Z,0.00
2017-12-16T00:44:33.863Z,0.00
2017-12-16T00:45:33.771Z,0.00
2017-12-16T00:46:33.776Z,0.00
2017-12-16T00:47:33.710Z,0.00
2017-12-16T00:48:33.728Z,0.00
2017-12-16T00:49:33.641Z,0.00
2017-12-16T00:50:33.701Z,0.00
2017-12-16T00:51:33.577Z,0.00
2017-12-16T00:52:33.612Z,0.00
2017-12-16T00:53:33.516Z,0.00
2017-12-16T00:54:33.526Z,0.00
2017-12-16T00:55:33.451Z,0.00
2017-12-16T00:56:33.434Z,0.00
2017-12-16T00:57:33.383Z,0.00
2017-12-16T00:58:33.447Z,0.00
2017-12-16T00:59:33.321Z,0.00
2017-12-16T01:00:33.360Z,0.00
2017-12-16T01:01:33.254Z,0.00
2017-12-16T01:02:33.273Z,0.00
2017-12-16T01:03:33.192Z,0.00
2017-12-16T01:04:33.183Z,0.00
2017-12-16T01:05:33.125Z,0.00
2017-12-16T01:06:33.197Z,0.00
2017-12-16T01:07:33.060Z,0.00
2017-12-16T01:08:33.107Z,0.00
2017-12-16T01:09:32.996Z,0.00
2017-12-16T01:10:33.022Z,0.00
2017-12-16T01:11:32.931Z,0.00
2017-12-16T01:12:32.929Z,0.00
2017-12-16T01:13:32.863Z,0.00
2017-12-16T01:14:32.942Z,0.00
2017-12-16T01:15:32.802Z,0.00
2017-12-16T01:16:32.856Z,0.00
2017-12-16T01:17:32.739Z,0.00
2017-12-16T01:18:32.767Z,0.00
2017-12-16T01:19:32.669Z,0.00
2017-12-16T01:20:32.679Z,0.00
2017-12-16T01:21:32.604Z,0.00
2017-12-16T01:22:32.585Z,0.00
2017-12-16T01:23:32.539Z,0.00
2017-12-16T01:24:32.602Z,0.00
2017-12-16T01:25:32.474Z,0.00
2017-12-16T01:26:32.518Z,0.00
2017-12-16T01:27:32.415Z,0.00
2017-12-16T01:28:32.427Z,0.00
2017-12-16T01:29:32.346Z,0.00
2017-12-16T01:30:32.336Z,0.00
2017-12-16T01:31:32.285Z,0.00
2017-12-16T01:32:32.351Z,0.00
2017-12-16T01:33:32.236Z,0.00
2017-12-16T01:34:32.264Z,0.00
2017-12-16T01:35:32.159Z,0.00
2017-12-16T01:36:32.173Z,0.00
2017-12-16T01:37:32.093Z,0.00
2017-12-16T01:38:32.084Z,0.00
2017-12-16T01:39:32.024Z,0.00
2017-12-16T01:40:32.099Z,0.00
2017-12-16T01:41:31.962Z,0.00
2017-12-16T01:42:32.010Z,0.00
2017-12-16T01:43:31.894Z,0.00
2017-12-16T01:44:31.927Z,0.00
2017-12-16T01:45:31.849Z,0.00
2017-12-16T01:46:31.830Z,0.00
2017-12-16T01:47:31.769Z,0.00
2017-12-16T01:48:31.844Z,0.00
2017-12-16T01:49:31.704Z,0.00
2017-12-16T01:50:31.998Z,0.00
2017-12-16T01:51:31.642Z,0.00
2017-12-16T01:52:31.675Z,0.00
2017-12-16T01:53:31.570Z,0.00
2017-12-16T01:54:31.579Z,0.00
2017-12-16T01:55:31.505Z,0.00
2017-12-16T01:56:31.498Z,0.00
2017-12-16T01:57:31.449Z,0.00
2017-12-16T01:58:31.510Z,0.00
2017-12-16T01:59:31.387Z,0.00
2017-12-16T02:00:31.420Z,0.00
2017-12-16T02:01:31.315Z,0.00
2017-12-16T02:02:31.331Z,0.00
2017-12-16T02:03:31.252Z,0.00
2017-12-16T02:04:31.242Z,0.00
2017-12-16T02:05:31.188Z,0.00
2017-12-16T02:06:31.257Z,0.00
2017-12-16T02:07:31.123Z,0.00
2017-12-16T02:08:31.165Z,0.00
2017-12-16T02:09:31.060Z,0.00
2017-12-16T02:10:31.077Z,0.00
2017-12-16T02:11:30.995Z,0.00
2017-12-16T02:12:30.988Z,0.00
2017-12-16T02:13:30.931Z,0.00
2017-12-16T02:14:31.003Z,0.00
2017-12-16T02:15:30.868Z,0.00
2017-12-16T02:16:30.918Z,0.00
2017-12-16T02:17:30.801Z,0.00
2017-12-16T02:18:30.829Z,0.00
2017-12-16T02:19:30.740Z,0.00
2017-12-16T02:20:30.750Z,0.00
2017-12-16T02:21:30.673Z,0.00
2017-12-16T02:22:30.761Z,0.00
2017-12-16T02:23:30.610Z,0.00
2017-12-16T02:24:30.663Z,0.00
2017-12-16T02:25:30.539Z,0.00
2017-12-16T02:26:30.577Z,0.00
2017-12-16T02:27:30.482Z,0.00
2017-12-16T02:28:30.485Z,0.00
2017-12-16T02:29:30.415Z,0.00
2017-12-16T02:30:30.400Z,0.00
2017-12-16T02:31:30.352Z,0.00
2017-12-16T02:32:30.412Z,0.00
2017-12-16T02:33:30.288Z,0.00
2017-12-16T02:34:30.324Z,0.00
2017-12-16T02:35:30.220Z,0.00
2017-12-16T02:36:30.233Z,0.00
2017-12-16T02:37:30.160Z,0.00
2017-12-16T02:38:30.151Z,0.00
2017-12-16T02:39:30.095Z,0.00
2017-12-16T02:40:30.166Z,0.00
2017-12-16T02:41:30.028Z,0.00
2017-12-16T02:42:30.076Z,0.00
2017-12-16T02:43:29.964Z,0.00
2017-12-16T02:44:29.992Z,0.00
2017-12-16T02:45:29.894Z,0.00
2017-12-16T02:46:29.901Z,0.00
2017-12-16T02:47:29.835Z,0.00
2017-12-16T02:48:29.914Z,0.00
2017-12-16T02:49:29.778Z,0.00
2017-12-16T02:50:29.825Z,0.00
2017-12-16T02:51:29.707Z,0.00
2017-12-16T02:52:29.737Z,0.00
2017-12-16T02:53:29.639Z,0.00
2017-12-16T02:54:29.646Z,0.00
2017-12-16T02:55:29.576Z,0.00
2017-12-16T02:56:29.557Z,0.00
2017-12-16T02:57:29.508Z,0.00
2017-12-16T02:58:29.571Z,0.00
2017-12-16T02:59:29.446Z,0.00
2017-12-16T03:00:29.481Z,0.00
2017-12-16T03:01:29.385Z,0.00
2017-12-16T03:02:29.393Z,0.00
2017-12-16T03:03:29.320Z,0.00
2017-12-16T03:04:29.308Z,0.00
2017-12-16T03:05:29.248Z,0.00
2017-12-16T03:06:29.323Z,0.00
2017-12-16T03:07:29.191Z,0.00
2017-12-16T03:08:29.228Z,0.00
2017-12-16T03:09:29.120Z,0.00
2017-12-16T03:10:29.145Z,0.00
2017-12-16T03:11:29.060Z,0.00
2017-12-16T03:12:29.049Z,0.00
2017-12-16T03:13:28.990Z,0.00
2017-12-16T03:14:29.069Z,0.00
2017-12-16T03:15:28.925Z,0.00
2017-12-16T03:16:28.979Z,0.00
2017-12-16T03:17:28.857Z,0.00
2017-12-16T03:18:28.889Z,0.00
2017-12-16T03:19:28.796Z,0.00
2017-12-16T03:20:28.806Z,0.00
2017-12-16T03:21:28.736Z,0.00
2017-12-16T03:22:28.825Z,0.00
2017-12-16T03:23:28.669Z,0.00
2017-12-16T03:24:28.722Z,0.00
2017-12-16T03:25:28.605Z,0.00
2017-12-16T03:26:28.635Z,0.00
2017-12-16T03:27:28.536Z,0.00
2017-12-16T03:28:28.546Z,0.00
2017-12-16T03:29:28.471Z,0.00
2017-12-16T03:30:28.458Z,0.00
2017-12-16T03:31:28.404Z,0.00
2017-12-16T03:32:28.478Z,0.00
2017-12-16T03:33:28.338Z,0.00
2017-12-16T03:34:28.386Z,0.00
2017-12-16T03:35:28.276Z,0.00
2017-12-16T03:36:28.294Z,0.00
2017-12-16T03:37:28.212Z,0.00
2017-12-16T03:38:28.207Z,0.00
2017-12-16T03:39:28.151Z,0.00
2017-12-16T03:40:28.221Z,0.00
2017-12-16T03:41:28.081Z,0.00
2017-12-16T03:42:28.139Z,0.00
2017-12-16T03:43:28.014Z,0.00
2017-12-16T03:44:28.049Z,0.00
2017-12-16T03:45:27.953Z,0.00
2017-12-16T03:46:27.959Z,0.00
2017-12-16T03:47:27.887Z,0.00
2017-12-16T03:48:27.868Z,0.00
2017-12-16T03:49:27.827Z,0.00
2017-12-16T03:50:27.882Z,0.00
2017-12-16T03:51:27.756Z,0.00
2017-12-16T03:52:27.797Z,0.00
2017-12-16T03:53:27.693Z,0.00
2017-12-16T03:54:27.706Z,0.00
2017-12-16T03:55:27.624Z,0.00
2017-12-16T03:56:27.616Z,0.00
2017-12-16T03:57:27.555Z,0.00
2017-12-16T03:58:27.630Z,0.00
2017-12-16T03:59:27.497Z,0.00
2017-12-16T04:00:27.540Z,0.00
2017-12-16T04:01:27.427Z,0.00
2017-12-16T04:02:27.452Z,0.00
2017-12-16T04:03:27.371Z,0.00
2017-12-16T04:04:27.364Z,0.00
2017-12-16T04:05:27.298Z,0.00
2017-12-16T04:06:27.376Z,0.00
2017-12-16T04:07:27.234Z,0.00
2017-12-16T04:08:27.291Z,0.00
2017-12-16T04:09:27.164Z,0.00
2017-12-16T04:10:27.200Z,0.00
2017-12-16T04:11:27.103Z,0.00
2017-12-16T04:12:27.111Z,0.00
2017-12-16T04:13:27.044Z,0.00
2017-12-16T04:14:27.023Z,0.00
2017-12-16T04:15:27.005Z,0.00
2017-12-16T04:16:27.065Z,0.00
2017-12-16T04:17:26.919Z,0.00
2017-12-16T04:18:26.948Z,0.00
2017-12-16T04:19:26.842Z,0.00
2017-12-16T04:20:26.860Z,0.00
2017-12-16T04:21:26.778Z,0.00
2017-12-16T04:22:26.771Z,0.00
2017-12-16T04:23:26.713Z,0.00
2017-12-16T04:24:26.784Z,0.00
2017-12-16T04:25:26.648Z,0.00
2017-12-16T04:26:26.695Z,0.00
2017-12-16T04:27:26.589Z,0.00
2017-12-16T04:28:26.607Z,0.00
2017-12-16T04:29:26.516Z,0.00
2017-12-16T04:30:26.519Z,0.00
2017-12-16T04:31:26.453Z,0.00
2017-12-16T04:32:26.532Z,0.00
2017-12-16T04:33:26.388Z,0.00
2017-12-16T04:34:26.444Z,0.00
2017-12-16T04:35:26.330Z,0.00
2017-12-16T04:36:26.357Z,0.00
2017-12-16T04:37:26.261Z,0.00
2017-12-16T04:38:26.268Z,0.00
2017-12-16T04:39:26.198Z,0.00
2017-12-16T04:40:26.179Z,0.00
2017-12-16T04:41:26.130Z,0.00
2017-12-16T04:42:26.193Z,0.00
2017-12-16T04:43:26.061Z,0.00
2017-12-16T04:44:26.105Z,0.00
2017-12-16T04:45:26.006Z,0.00
2017-12-16T04:46:26.016Z,0.00
2017-12-16T04:47:25.935Z,0.00
2017-12-16T04:48:25.927Z,0.00
2017-12-16T04:49:25.869Z,0.00
2017-12-16T04:50:25.941Z,0.00
2017-12-16T04:51:25.801Z,0.00
2017-12-16T04:52:25.851Z,0.00
2017-12-16T04:53:25.740Z,0.00
2017-12-16T04:54:25.763Z,0.00
2017-12-16T04:55:25.676Z,0.00
2017-12-16T04:56:25.675Z,0.00
2017-12-16T04:57:25.615Z,0.00
2017-12-16T04:58:25.688Z,0.00
2017-12-16T04:59:25.546Z,0.00
2017-12-16T05:00:25.597Z,0.00
2017-12-16T05:01:25.482Z,0.00
2017-12-16T05:02:25.511Z,0.00
2017-12-16T05:03:25.414Z,0.00
2017-12-16T05:04:25.425Z,0.00
2017-12-16T05:05:25.355Z,0.00
2017-12-16T05:06:25.334Z,0.00
2017-12-16T05:07:25.285Z,0.00
2017-12-16T05:08:25.347Z,0.00
2017-12-16T05:09:25.217Z,0.00
2017-12-16T05:10:25.263Z,0.00
2017-12-16T05:11:25.174Z,0.00
2017-12-16T05:12:25.171Z,0.00
2017-12-16T05:13:25.093Z,0.00
2017-12-16T05:14:25.084Z,0.00
2017-12-16T05:15:25.033Z,0.00
2017-12-16T05:16:25.100Z,0.00
2017-12-16T05:17:24.962Z,0.00
2017-12-16T05:18:25.008Z,0.00
2017-12-16T05:19:24.898Z,0.00
2017-12-16T05:20:24.923Z,0.00
2017-12-16T05:21:24.831Z,0.00
2017-12-16T05:22:24.831Z,0.00
2017-12-16T05:23:24.775Z,0.00
2017-12-16T05:24:24.848Z,0.00
2017-12-16T05:25:24.700Z,0.00
2017-12-16T05:26:24.757Z,0.00
2017-12-16T05:27:24.636Z,0.00
2017-12-16T05:28:24.669Z,0.00
2017-12-16T05:29:24.573Z,0.00
2017-12-16T05:30:24.584Z,0.00
2017-12-16T05:31:24.527Z,0.00
2017-12-16T05:32:24.601Z,0.00
2017-12-16T05:33:24.444Z,0.00
2017-12-16T05:34:24.508Z,0.00
2017-12-16T05:35:24.382Z,0.00
2017-12-16T05:36:24.423Z,0.00
2017-12-16T05:37:24.314Z,0.00
2017-12-16T05:38:24.334Z,0.00
2017-12-16T05:39:24.249Z,0.00
2017-12-16T05:40:24.249Z,0.00
2017-12-16T05:41:24.179Z,0.00
2017-12-16T05:42:24.253Z,0.00
2017-12-16T05:43:24.118Z,0.00
2017-12-16T05:44:24.168Z,0.00
2017-12-16T05:45:24.053Z,0.00
2017-12-16T05:46:24.075Z,0.00
2017-12-16T05:47:23.987Z,0.00
2017-12-16T05:48:23.986Z,0.00
2017-12-16T05:49:23.921Z,0.00
2017-12-16T05:50:23.999Z,0.00
2017-12-16T05:51:23.873Z,0.00
2017-12-16T05:52:23.914Z,0.00
2017-12-16T05:53:23.791Z,0.00
2017-12-16T05:54:23.824Z,0.00
2017-12-16T05:55:23.725Z,0.00
2017-12-16T05:56:23.735Z,0.00
2017-12-16T05:57:23.663Z,0.00
2017-12-16T05:58:23.653Z,0.00
2017-12-16T05:59:23.598Z,0.00
2017-12-16T06:00:23.666Z,0.00
2017-12-16T06:01:23.535Z,0.00
2017-12-16T06:02:23.571Z,0.00
2017-12-16T06:03:23.464Z,0.00
2017-12-16T06:04:23.481Z,0.00
2017-12-16T06:05:23.400Z,0.00
2017-12-16T06:06:23.396Z,0.00
2017-12-16T06:07:23.332Z,0.00
2017-12-16T06:08:23.407Z,0.00
2017-12-16T06:09:23.269Z,0.00
2017-12-16T06:10:23.319Z,0.00
2017-12-16T06:11:23.208Z,0.00
2017-12-16T06:12:23.240Z,0.00
2017-12-16T06:13:23.138Z,0.00
2017-12-16T06:14:23.143Z,0.00
2017-12-16T06:15:23.074Z,0.00
2017-12-16T06:16:23.152Z,0.00
2017-12-16T06:17:23.004Z,0.00
2017-12-16T06:18:23.071Z,0.00
2017-12-16T06:19:22.945Z,0.00
2017-12-16T06:20:22.983Z,0.00
2017-12-16T06:21:22.874Z,0.00
2017-12-16T06:22:22.889Z,0.00
2017-12-16T06:23:22.811Z,0.00
2017-12-16T06:24:22.803Z,0.00
2017-12-16T06:25:22.741Z,0.00
2017-12-16T06:26:22.865Z,0.00
2017-12-16T06:27:22.683Z,0.00
2017-12-16T06:28:22.730Z,0.00
2017-12-16T06:29:22.616Z,0.00
2017-12-16T06:30:22.637Z,0.00
2017-12-16T06:31:22.549Z,0.00
2017-12-16T06:32:22.552Z,0.00
2017-12-16T06:33:22.482Z,0.00
2017-12-16T06:34:22.567Z,0.00
2017-12-16T06:35:22.415Z,0.00
2017-12-16T06:36:22.479Z,0.00
2017-12-16T06:37:22.357Z,0.00
2017-12-16T06:38:22.387Z,0.00
2017-12-16T06:39:22.286Z,0.00
2017-12-16T06:40:22.299Z,0.00
2017-12-16T06:41:22.221Z,0.00
2017-12-16T06:42:22.211Z,0.00
2017-12-16T06:43:22.156Z,0.00
2017-12-16T06:44:22.220Z,0.00
2017-12-16T06:45:22.089Z,0.00
2017-12-16T06:46:22.134Z,0.00
2017-12-16T06:47:22.021Z,0.00
2017-12-16T06:48:22.046Z,0.00
2017-12-16T06:49:21.958Z,0.00
2017-12-16T06:50:21.959Z,0.00
2017-12-16T06:51:21.890Z,0.00
2017-12-16T06:52:21.980Z,0.00
2017-12-16T06:53:21.828Z,0.00
2017-12-16T06:54:21.945Z,0.00
2017-12-16T06:55:21.766Z,0.00
2017-12-16T06:56:21.799Z,0.00
2017-12-16T06:57:21.696Z,0.00
2017-12-16T06:58:21.706Z,0.00
2017-12-16T06:59:21.630Z,0.00
2017-12-16T07:00:21.621Z,0.00
2017-12-16T07:01:21.562Z,0.00
2017-12-16T07:02:21.637Z,0.00
2017-12-16T07:03:21.497Z,0.00
2017-12-16T07:04:21.542Z,0.00
2017-12-16T07:05:21.461Z,0.00
2017-12-16T07:06:21.455Z,0.00
2017-12-16T07:07:21.367Z,0.00
2017-12-16T07:08:21.364Z,0.00
2017-12-16T07:09:21.297Z,0.00
2017-12-16T07:10:21.380Z,0.00
2017-12-16T07:11:21.237Z,0.00
2017-12-16T07:12:21.288Z,0.00
2017-12-16T07:13:21.173Z,0.00
2017-12-16T07:14:21.204Z,0.00
2017-12-16T07:15:21.103Z,0.00
2017-12-16T07:16:21.112Z,0.00
2017-12-16T07:17:21.039Z,0.00
2017-12-16T07:18:21.027Z,0.00
2017-12-16T07:19:20.975Z,0.00
2017-12-16T07:20:21.037Z,0.00
2017-12-16T07:21:20.907Z,0.00
2017-12-16T07:22:20.947Z,0.00
2017-12-16T07:23:20.842Z,0.00
2017-12-16T07:24:20.862Z,0.00
2017-12-16T07:25:20.774Z,0.00
2017-12-16T07:26:20.774Z,0.00
2017-12-16T07:27:20.712Z,0.00
2017-12-16T07:28:20.788Z,0.00
2017-12-16T07:29:20.643Z,5.63
2017-12-16T07:30:20.698Z,5.63
2017-12-16T07:31:20.578Z,5.63
2017-12-16T07:32:20.611Z,5.63
2017-12-16T07:33:20.510Z,5.63
2017-12-16T07:34:20.517Z,5.63
2017-12-16T07:35:20.443Z,5.63
2017-12-16T07:36:20.434Z,5.63
2017-12-16T07:37:20.373Z,5.63
2017-12-16T07:38:20.442Z,11.25
2017-12-16T07:39:20.311Z,11.25
2017-12-16T07:40:20.358Z,11.25
2017-12-16T07:41:20.246Z,11.25
2017-12-16T07:42:20.269Z,11.25
2017-12-16T07:43:20.181Z,11.25
2017-12-16T07:44:20.178Z,11.25
2017-12-16T07:45:20.112Z,11.25
2017-12-16T07:46:20.089Z,11.25
2017-12-16T07:47:20.051Z,16.88
2017-12-16T07:48:20.103Z,16.88
2017-12-16T07:49:19.979Z,16.88
2017-12-16T07:50:20.015Z,16.88
2017-12-16T07:51:19.915Z,22.50
2017-12-16T07:52:19.926Z,22.50
2017-12-16T07:53:19.846Z,22.50
2017-12-16T07:54:19.840Z,22.50
2017-12-16T07:55:19.783Z,22.50
2017-12-16T07:56:19.868Z,22.50
2017-12-16T07:57:19.717Z,22.50
2017-12-16T07:58:19.771Z,22.50
2017-12-16T07:59:19.645Z,22.50
2017-12-16T08:00:19.676Z,28.13
2017-12-16T08:01:19.583Z,28.13
2017-12-16T08:02:19.586Z,28.13
2017-12-16T08:03:19.516Z,33.75
2017-12-16T08:04:19.498Z,33.75
2017-12-16T08:05:19.451Z,33.75
2017-12-16T08:06:19.515Z,39.38
2017-12-16T08:07:19.382Z,45.00
2017-12-16T08:08:19.422Z,50.63
2017-12-16T08:09:19.313Z,50.63
2017-12-16T08:10:19.335Z,50.63
2017-12-16T08:11:19.251Z,50.63
2017-12-16T08:12:19.246Z,50.63
2017-12-16T08:13:19.179Z,50.63
2017-12-16T08:14:19.256Z,50.63
2017-12-16T08:15:19.131Z,50.63
2017-12-16T08:16:19.173Z,50.63
2017-12-16T08:17:19.052Z,56.25
2017-12-16T08:18:19.091Z,56.25
2017-12-16T08:19:18.982Z,61.88
2017-12-16T08:20:19.047Z,61.88
2017-12-16T08:21:18.920Z,67.50
2017-12-16T08:22:18.921Z,67.50
2017-12-16T08:23:18.854Z,67.50
2017-12-16T08:24:18.917Z,73.13
2017-12-16T08:25:18.788Z,73.13
2017-12-16T08:26:18.833Z,73.13
2017-12-16T08:27:18.718Z,73.13
2017-12-16T08:28:18.748Z,78.75
2017-12-16T08:29:18.656Z,84.38
2017-12-16T08:30:18.660Z,101.25
2017-12-16T08:31:18.591Z,106.88
2017-12-16T08:32:18.562Z,106.88
2017-12-16T08:33:18.519Z,118.13
2017-12-16T08:34:18.584Z,123.75
2017-12-16T08:35:18.459Z,129.38
2017-12-16T08:36:18.498Z,135.00
2017-12-16T08:37:18.390Z,140.63
2017-12-16T08:38:18.398Z,135.00
2017-12-16T08:39:18.325Z,129.38
2017-12-16T08:40:18.325Z,123.75
2017-12-16T08:41:18.257Z,118.13
2017-12-16T08:42:18.351Z,106.88
2017-12-16T08:43:18.191Z,101.25
2017-12-16T08:44:18.246Z,95.63
2017-12-16T08:45:18.128Z,90.00
2017-12-16T08:46:18.156Z,84.38
2017-12-16T08:47:18.066Z,84.38
2017-12-16T08:48:18.063Z,84.38
2017-12-16T08:49:17.991Z,78.75
2017-12-16T08:50:17.977Z,73.13
2017-12-16T08:51:17.930Z,78.75
2017-12-16T08:52:17.992Z,67.50
2017-12-16T08:53:17.861Z,67.50
2017-12-16T08:54:17.898Z,67.50
2017-12-16T08:55:17.807Z,84.38
2017-12-16T08:56:17.818Z,95.63
2017-12-16T08:57:17.729Z,101.25
2017-12-16T08:58:17.726Z,106.88
2017-12-16T08:59:17.670Z,112.50
2017-12-16T09:00:17.738Z,106.88
2017-12-16T09:01:17.606Z,106.88
2017-12-16T09:02:17.658Z,95.63
2017-12-16T09:03:17.534Z,90.00
2017-12-16T09:04:17.562Z,84.38
2017-12-16T09:05:17.468Z,90.00
2017-12-16T09:06:17.472Z,90.00
2017-12-16T09:07:17.407Z,84.38
2017-12-16T09:08:17.485Z,90.00
2017-12-16T09:09:17.338Z,90.00
2017-12-16T09:10:17.397Z,95.63
2017-12-16T09:11:17.272Z,106.88
2017-12-16T09:12:17.308Z,112.50
2017-12-16T09:13:17.212Z,112.50
2017-12-16T09:14:17.230Z,118.13
2017-12-16T09:15:17.145Z,129.38
2017-12-16T09:16:17.136Z,140.63
2017-12-16T09:17:17.085Z,151.88
2017-12-16T09:18:17.146Z,163.13
2017-12-16T09:19:17.018Z,180.00
2017-12-16T09:20:17.083Z,230.63
2017-12-16T09:21:16.954Z,270.00
2017-12-16T09:22:16.966Z,270.00
2017-12-16T09:23:16.889Z,208.13
2017-12-16T09:24:16.882Z,236.25
2017-12-16T09:25:16.818Z,281.25
2017-12-16T09:26:16.891Z,236.25
2017-12-16T09:27:16.754Z,202.50
2017-12-16T09:28:16.832Z,196.88
2017-12-16T09:29:16.693Z,202.50
2017-12-16T09:30:16.713Z,219.38
2017-12-16T09:31:16.629Z,202.50
2017-12-16T09:32:16.626Z,191.25
2017-12-16T09:33:16.566Z,180.00
2017-12-16T09:34:16.638Z,180.00
2017-12-16T09:35:16.500Z,191.25
2017-12-16T09:36:16.551Z,202.50
2017-12-16T09:37:16.436Z,208.13
2017-12-16T09:38:16.461Z,208.13
2017-12-16T09:39:16.379Z,213.75
2017-12-16T09:40:16.374Z,225.00
2017-12-16T09:41:16.307Z,225.00
2017-12-16T09:42:16.386Z,213.75
2017-12-16T09:43:16.244Z,219.38
2017-12-16T09:44:16.295Z,202.50
2017-12-16T09:45:16.180Z,151.88
2017-12-16T09:46:16.209Z,146.25
2017-12-16T09:47:16.121Z,129.38
2017-12-16T09:48:16.122Z,112.50
2017-12-16T09:49:16.064Z,123.75
2017-12-16T09:50:16.140Z,101.25
2017-12-16T09:51:15.989Z,90.00
2017-12-16T09:52:16.045Z,90.00
2017-12-16T09:53:15.930Z,101.25
2017-12-16T09:54:15.957Z,101.25
2017-12-16T09:55:15.864Z,112.50
2017-12-16T09:56:15.832Z,123.75
2017-12-16T09:57:15.800Z,146.25
2017-12-16T09:58:15.779Z,151.88
2017-12-16T09:59:15.734Z,168.75
2017-12-16T10:00:15.796Z,208.13
2017-12-16T10:01:15.669Z,241.88
2017-12-16T10:02:15.705Z,270.00
2017-12-16T10:03:15.607Z,337.50
2017-12-16T10:04:15.619Z,810.00
2017-12-16T10:05:15.551Z,905.63
2017-12-16T10:06:15.529Z,1732.50
2017-12-16T10:07:15.487Z,2649.38
2017-12-16T10:08:15.544Z,1980.00
2017-12-16T10:09:15.421Z,3138.75
2017-12-16T10:10:15.459Z,1451.25
2017-12-16T10:11:15.358Z,1080.00
2017-12-16T10:12:15.368Z,1057.50
2017-12-16T10:13:15.305Z,765.00
2017-12-16T10:14:15.380Z,798.75
2017-12-16T10:15:15.241Z,736.88
2017-12-16T10:16:15.293Z,894.38
2017-12-16T10:17:15.189Z,691.88
2017-12-16T10:18:15.204Z,573.75
2017-12-16T10:19:15.125Z,545.63
2017-12-16T10:20:15.116Z,511.88
2017-12-16T10:21:15.063Z,517.50
2017-12-16T10:22:15.130Z,641.25
2017-12-16T10:23:15.012Z,770.63
2017-12-16T10:24:15.048Z,1957.50
2017-12-16T10:25:14.951Z,1276.88
2017-12-16T10:26:14.952Z,1006.88
2017-12-16T10:27:14.901Z,2334.38
2017-12-16T10:28:14.966Z,1873.13
2017-12-16T10:29:14.847Z,3217.50
2017-12-16T10:30:14.879Z,3166.88
2017-12-16T10:31:14.787Z,3279.38
2017-12-16T10:32:14.789Z,3375.00
2017-12-16T10:33:14.728Z,3318.75
2017-12-16T10:34:14.804Z,3285.00
2017-12-16T10:35:14.681Z,3138.75
2017-12-16T10:36:14.715Z,3166.88
2017-12-16T10:37:14.630Z,3307.50
2017-12-16T10:38:14.728Z,3301.88
2017-12-16T10:39:14.583Z,3245.63
2017-12-16T10:40:14.638Z,3178.13
2017-12-16T10:41:14.547Z,3189.38
2017-12-16T10:42:14.550Z,3195.00
2017-12-16T10:43:14.501Z,3251.25
2017-12-16T10:44:14.568Z,3341.25
2017-12-16T10:45:14.456Z,2626.88
2017-12-16T10:46:14.477Z,1518.75
2017-12-16T10:47:14.422Z,3358.13
2017-12-16T10:48:14.490Z,3054.38
2017-12-16T10:49:14.382Z,1569.38
2017-12-16T10:50:14.401Z,2632.50
2017-12-16T10:51:14.343Z,3206.25
2017-12-16T10:52:14.414Z,3279.38
2017-12-16T10:53:14.305Z,3093.75
2017-12-16T10:54:14.326Z,2964.38
2017-12-16T10:55:14.268Z,2953.13
2017-12-16T10:56:14.339Z,3020.63
2017-12-16T10:57:14.240Z,3088.13
2017-12-16T10:58:14.248Z,3105.00
2017-12-16T10:59:14.210Z,3088.13
2017-12-16T11:00:14.265Z,3133.13
2017-12-16T11:01:14.165Z,3195.00
2017-12-16T11:02:14.176Z,3234.38
2017-12-16T11:03:14.131Z,3251.25
2017-12-16T11:04:14.188Z,3206.25
2017-12-16T11:05:14.099Z,3211.88
2017-12-16T11:06:14.099Z,3189.38
2017-12-16T11:07:14.072Z,3144.38
2017-12-16T11:08:14.114Z,3166.88
2017-12-16T11:09:14.054Z,3217.50
2017-12-16T11:10:14.132Z,3240.00
2017-12-16T11:11:14.005Z,3268.13
2017-12-16T11:12:14.039Z,2694.38
2017-12-16T11:13:13.973Z,393.75
2017-12-16T11:14:14.053Z,309.38
2017-12-16T11:15:13.943Z,410.63
2017-12-16T11:16:13.968Z,180.00
2017-12-16T11:17:13.912Z,180.00
2017-12-16T11:18:13.981Z,185.63
2017-12-16T11:19:13.881Z,208.13
2017-12-16T11:20:13.892Z,202.50
2017-12-16T11:21:13.840Z,196.88
2017-12-16T11:22:13.907Z,331.88
2017-12-16T11:23:13.804Z,174.38
2017-12-16T11:24:13.814Z,118.13
2017-12-16T11:25:13.763Z,106.88
2017-12-16T11:26:14.855Z,106.88
2017-12-16T11:27:13.748Z,112.50
2017-12-16T11:28:13.742Z,118.13
2017-12-16T11:29:13.679Z,129.38
2017-12-16T11:30:13.755Z,168.75
2017-12-16T11:31:13.630Z,225.00
2017-12-16T11:32:13.605Z,551.25
2017-12-16T11:33:13.591Z,2761.88
2017-12-16T11:34:13.578Z,1895.63
2017-12-16T11:35:13.542Z,1276.88
2017-12-16T11:36:13.590Z,720.00
2017-12-16T11:37:13.564Z,973.13
2017-12-16T11:38:13.502Z,2880.00
2017-12-16T11:39:13.444Z,2711.25
2017-12-16T11:40:13.524Z,2896.88
2017-12-16T11:41:13.400Z,2998.13
2017-12-16T11:42:13.426Z,3076.88
2017-12-16T11:43:13.356Z,3043.13
2017-12-16T11:44:13.439Z,2992.50
2017-12-16T11:45:13.309Z,2908.13
2017-12-16T11:46:13.354Z,2851.88
2017-12-16T11:47:13.264Z,2812.50
2017-12-16T11:48:13.267Z,2902.50
2017-12-16T11:49:13.228Z,2992.50
2017-12-16T11:50:13.293Z,2970.00
2017-12-16T11:51:13.177Z,2981.25
2017-12-16T11:52:13.189Z,2694.38
2017-12-16T11:53:13.145Z,2576.25
2017-12-16T11:54:13.206Z,2908.13
2017-12-16T11:55:13.100Z,2216.25
2017-12-16T11:56:13.114Z,2857.50
2017-12-16T11:57:13.061Z,2840.63
2017-12-16T11:58:13.135Z,2390.63
2017-12-16T11:59:13.023Z,2463.75
2017-12-16T12:00:13.043Z,1276.88
2017-12-16T12:01:12.988Z,984.38
2017-12-16T12:02:13.054Z,2463.75
2017-12-16T12:03:12.952Z,2908.13
2017-12-16T12:04:12.966Z,2733.75
2017-12-16T12:05:12.913Z,2784.38
2017-12-16T12:06:12.982Z,2745.00
2017-12-16T12:07:12.880Z,2806.88
2017-12-16T12:08:12.900Z,2812.50
2017-12-16T12:09:12.842Z,2615.63
2017-12-16T12:10:12.910Z,2261.25
2017-12-16T12:11:12.806Z,1530.00
2017-12-16T12:12:12.815Z,1625.63
2017-12-16T12:13:12.771Z,1951.88
2017-12-16T12:14:12.798Z,1485.00
2017-12-16T12:15:12.733Z,1192.50
2017-12-16T12:16:12.746Z,708.75
2017-12-16T12:17:12.696Z,1018.13
2017-12-16T12:18:12.760Z,2761.88
2017-12-16T12:19:12.667Z,2621.25
2017-12-16T12:20:12.670Z,2525.63
2017-12-16T12:21:12.654Z,2531.25
2017-12-16T12:22:12.687Z,2396.25
2017-12-16T12:23:12.587Z,2396.25
2017-12-16T12:24:12.595Z,1535.63
2017-12-16T12:25:12.557Z,2458.13
2017-12-16T12:26:12.607Z,2452.50
2017-12-16T12:27:12.518Z,2553.75
2017-12-16T12:28:12.520Z,2525.63
2017-12-16T12:29:12.476Z,2548.13
2017-12-16T12:30:12.532Z,1417.50
2017-12-16T12:31:12.443Z,2536.88
2017-12-16T12:32:12.444Z,2480.63
2017-12-16T12:33:12.401Z,2497.50
2017-12-16T12:34:12.461Z,2525.63
2017-12-16T12:35:12.390Z,2480.63
2017-12-16T12:36:12.369Z,2458.13
2017-12-16T12:37:12.333Z,2430.00
2017-12-16T12:38:12.398Z,2446.88
2017-12-16T12:39:12.296Z,2452.50
2017-12-16T12:40:12.293Z,2418.75
2017-12-16T12:41:12.261Z,2311.88
2017-12-16T12:42:12.306Z,2430.00
2017-12-16T12:43:12.224Z,2475.00
2017-12-16T12:44:12.225Z,2452.50
2017-12-16T12:45:12.192Z,2424.38
2017-12-16T12:46:12.237Z,2407.50
2017-12-16T12:47:12.162Z,2356.88
2017-12-16T12:48:12.252Z,2345.63
2017-12-16T12:49:12.119Z,2278.13
2017-12-16T12:50:12.163Z,2244.38
2017-12-16T12:51:12.083Z,2058.75
2017-12-16T12:52:12.176Z,804.38
2017-12-16T12:53:12.048Z,1895.63
2017-12-16T12:54:12.097Z,894.38
2017-12-16T12:55:12.015Z,1220.63